createdAt,value
2023-05-07T00:02:04.814Z,6.83
2023-05-07T00:04:37.745Z,8.82
2023-05-07T00:07:06.673Z,7.10
2023-05-07T00:09:37.945Z,6.97
2023-05-07T00:12:06.269Z,7.87
2023-05-07T00:14:35.778Z,7.40
2023-05-07T00:17:06.285Z,7.17
2023-05-07T00:19:34.536Z,8.50
2023-05-07T00:22:02.880Z,8.10
2023-05-07T00:24:31.007Z,7.43
2023-05-07T00:27:01.467Z,8.17
2023-05-07T00:29:30.065Z,7.97
2023-05-07T00:32:02.063Z,7.73
2023-05-07T00:34:30.564Z,9.33
2023-05-07T00:37:01.049Z,7.80
2023-05-07T00:39:29.200Z,8.03
2023-05-07T00:41:58.034Z,7.47
2023-05-07T00:44:26.223Z,8.60
2023-05-07T00:46:55.426Z,7.90
2023-05-07T00:49:37.530Z,9.57
2023-05-07T00:52:06.148Z,8.50
2023-05-07T00:54:35.722Z,9.57
2023-05-07T00:57:05.576Z,10.40
2023-05-07T00:59:36.238Z,10.50
2023-05-07T01:02:06.915Z,10.10
2023-05-07T01:04:39.477Z,11.87
2023-05-07T01:07:10.624Z,10.33
2023-05-07T01:09:39.329Z,10.03
2023-05-07T01:12:08.862Z,10.47
2023-05-07T01:14:37.215Z,10.37
2023-05-07T01:17:05.451Z,12.30
2023-05-07T01:19:33.824Z,11.90
2023-05-07T01:22:10.211Z,12.50
2023-05-07T01:24:49.481Z,12.03
2023-05-07T01:27:18.788Z,12.47
2023-05-07T01:29:49.090Z,13.23
2023-05-07T01:32:23.858Z,12.53
2023-05-07T01:34:56.242Z,13.33
2023-05-07T01:37:27.770Z,12.67
2023-05-07T01:40:00.143Z,12.70
2023-05-07T01:42:31.565Z,13.97
2023-05-07T01:45:00.138Z,13.40
2023-05-07T01:47:32.165Z,13.97
2023-05-07T01:50:03.405Z,12.63
2023-05-07T01:52:32.093Z,13.97
2023-05-07T01:55:01.600Z,14.10
2023-05-07T01:57:29.813Z,14.47
2023-05-07T02:00:00.221Z,13.83
2023-05-07T02:02:28.491Z,15.03
2023-05-07T02:04:59.447Z,14.80
2023-05-07T02:07:27.595Z,14.13
2023-05-07T02:09:57.832Z,14.70
2023-05-07T02:12:27.353Z,14.50
2023-05-07T02:14:55.608Z,14.53
2023-05-07T02:17:26.479Z,15.73
2023-05-07T02:19:54.696Z,14.30
2023-05-07T02:22:24.894Z,14.73
2023-05-07T02:24:53.015Z,15.80
2023-05-07T02:27:23.629Z,15.07
2023-05-07T02:29:55.785Z,15.03
2023-05-07T02:32:24.571Z,15.43
2023-05-07T02:34:53.345Z,15.47
2023-05-07T02:37:21.450Z,14.37
2023-05-07T02:39:49.657Z,15.33
2023-05-07T02:42:18.860Z,14.43
2023-05-07T02:44:47.084Z,14.40
2023-05-07T02:47:17.770Z,14.30
2023-05-07T02:49:48.632Z,14.93
2023-05-07T02:52:16.840Z,15.93
2023-05-07T02:54:45.134Z,15.30
2023-05-07T02:57:13.301Z,15.20
2023-05-07T02:59:41.421Z,14.30
2023-05-07T03:02:09.571Z,15.20
2023-05-07T03:04:42.110Z,16.23
2023-05-07T03:07:14.358Z,14.33
2023-05-07T03:09:44.734Z,15.07
2023-05-07T03:12:12.935Z,14.97
2023-05-07T03:14:41.124Z,15.77
2023-05-07T03:17:09.354Z,15.23
2023-05-07T03:19:38.862Z,15.60
2023-05-07T03:22:07.200Z,15.87
2023-05-07T03:24:37.847Z,15.50
2023-05-07T03:27:05.984Z,16.03
2023-05-07T03:29:34.414Z,15.90
2023-05-07T03:32:02.678Z,15.70
2023-05-07T03:34:30.954Z,16.23
2023-05-07T03:37:00.545Z,15.73
2023-05-07T03:39:28.710Z,17.23
2023-05-07T03:41:56.972Z,16.57
2023-05-07T03:44:25.417Z,16.50
2023-05-07T03:46:56.377Z,17.17
2023-05-07T03:49:24.732Z,16.57
2023-05-07T03:51:55.276Z,16.10
2023-05-07T03:54:27.271Z,17.67
2023-05-07T03:56:57.694Z,17.17
2023-05-07T03:59:25.865Z,16.97
2023-05-07T04:01:54.060Z,16.40
2023-05-07T04:04:25.296Z,17.63
2023-05-07T04:06:54.004Z,15.77
2023-05-07T04:09:23.385Z,17.47
2023-05-07T04:11:53.140Z,16.70
2023-05-07T04:14:21.302Z,16.07
2023-05-07T04:16:50.467Z,17.37
2023-05-07T04:19:18.732Z,16.27
2023-05-07T04:21:48.588Z,17.63
2023-05-07T04:24:16.904Z,16.07
2023-05-07T04:26:46.140Z,16.73
2023-05-07T04:29:18.408Z,17.30
2023-05-07T04:31:46.688Z,16.40
2023-05-07T04:34:15.356Z,15.77
2023-05-07T04:36:45.768Z,15.93
2023-05-07T04:39:15.936Z,16.47
2023-05-07T04:41:46.174Z,14.87
2023-05-07T04:44:18.048Z,15.97
2023-05-07T04:46:46.767Z,16.77
2023-05-07T04:49:14.936Z,15.77
2023-05-07T04:51:46.184Z,16.63
2023-05-07T04:54:16.439Z,16.87
2023-05-07T04:56:47.161Z,16.33
2023-05-07T04:59:15.618Z,14.87
2023-05-07T05:01:48.210Z,16.13
2023-05-07T05:04:16.356Z,15.57
2023-05-07T05:06:44.606Z,16.30
2023-05-07T05:09:14.087Z,16.00
2023-05-07T05:11:43.197Z,16.90
2023-05-07T05:14:11.417Z,15.97
2023-05-07T05:16:39.742Z,17.47
2023-05-07T05:19:09.376Z,17.00
2023-05-07T05:21:40.475Z,16.67
2023-05-07T05:24:12.013Z,15.47
2023-05-07T05:26:41.166Z,16.97
2023-05-07T05:29:11.515Z,14.53
2023-05-07T05:31:45.439Z,17.07
2023-05-07T05:34:18.418Z,16.57
2023-05-07T05:36:46.575Z,15.47
2023-05-07T05:39:17.771Z,15.23
2023-05-07T05:41:48.571Z,15.90
2023-05-07T05:44:16.736Z,16.37
2023-05-07T05:46:47.093Z,15.23
2023-05-07T05:49:17.151Z,15.97
2023-05-07T05:51:47.584Z,15.10
2023-05-07T05:54:16.170Z,15.40
2023-05-07T05:56:44.807Z,15.17
2023-05-07T05:59:13.374Z,14.57
2023-05-07T06:01:43.818Z,14.53
2023-05-07T06:04:12.006Z,15.97
2023-05-07T06:06:44.004Z,15.97
2023-05-07T06:09:14.970Z,16.00
2023-05-07T06:11:45.476Z,15.57
2023-05-07T06:14:14.680Z,15.10
2023-05-07T06:16:45.886Z,15.47
2023-05-07T06:19:19.103Z,15.73
2023-05-07T06:21:51.003Z,15.30
2023-05-07T06:24:19.222Z,15.40
2023-05-07T06:26:47.343Z,15.60
2023-05-07T06:29:18.317Z,15.63
2023-05-07T06:31:47.278Z,15.03
2023-05-07T06:34:16.273Z,16.47
2023-05-07T06:36:44.749Z,14.63
2023-05-07T06:39:26.686Z,16.07
2023-05-07T06:41:57.229Z,15.40
2023-05-07T06:44:33.106Z,15.17
2023-05-07T06:47:15.708Z,15.70
2023-05-07T06:49:45.980Z,16.50
2023-05-07T06:52:17.797Z,14.87
2023-05-07T06:54:48.137Z,14.53
2023-05-07T06:57:19.269Z,15.17
2023-05-07T06:59:47.670Z,15.70
2023-05-07T07:02:17.720Z,15.47
2023-05-07T07:04:47.145Z,16.10
2023-05-07T07:07:16.066Z,15.97
2023-05-07T07:09:48.285Z,15.97
2023-05-07T07:12:19.298Z,15.90
2023-05-07T07:14:47.544Z,16.33
2023-05-07T07:17:16.408Z,14.57
2023-05-07T07:19:44.712Z,16.33
2023-05-07T07:22:12.970Z,15.20
2023-05-07T07:24:41.149Z,16.20
2023-05-07T07:27:15.155Z,15.50
2023-05-07T07:29:43.368Z,16.10
2023-05-07T07:32:11.584Z,15.37
2023-05-07T07:34:42.843Z,15.20
2023-05-07T07:37:11.433Z,16.07
2023-05-07T07:39:44.971Z,17.60
2023-05-07T07:42:14.630Z,16.63
2023-05-07T07:44:45.119Z,15.93
2023-05-07T07:47:14.913Z,15.40
2023-05-07T07:49:46.368Z,16.52
2023-05-07T07:52:14.795Z,17.35
2023-05-07T07:54:46.926Z,15.97
2023-05-07T07:57:18.828Z,15.20
2023-05-07T07:59:48.033Z,15.57
2023-05-07T08:02:17.772Z,15.50
2023-05-07T08:04:47.758Z,16.23
2023-05-07T08:07:21.609Z,14.43
2023-05-07T08:09:52.999Z,16.03
2023-05-07T08:12:25.721Z,15.47
2023-05-07T08:14:56.120Z,15.87
2023-05-07T08:17:24.398Z,15.67
2023-05-07T08:19:55.874Z,15.83
2023-05-07T08:22:24.151Z,15.30
2023-05-07T08:24:54.638Z,14.87
2023-05-07T08:27:22.871Z,14.97
2023-05-07T08:29:55.942Z,15.43
2023-05-07T08:32:24.454Z,15.50
2023-05-07T08:34:52.678Z,15.50
2023-05-07T08:37:23.592Z,15.07
2023-05-07T08:39:52.061Z,15.77
2023-05-07T08:42:25.921Z,16.10
2023-05-07T08:45:02.159Z,15.13
2023-05-07T08:47:42.820Z,14.43
2023-05-07T08:50:14.630Z,15.20
2023-05-07T08:52:44.193Z,15.90
2023-05-07T08:55:13.002Z,14.33
2023-05-07T08:57:44.141Z,16.90
2023-05-07T09:00:16.376Z,15.33
2023-05-07T09:02:46.159Z,14.33
2023-05-07T09:05:14.575Z,14.73
2023-05-07T09:07:42.896Z,15.03
2023-05-07T09:10:12.541Z,14.60
2023-05-07T09:12:42.382Z,15.00
2023-05-07T09:15:16.622Z,15.40
2023-05-07T09:17:45.991Z,13.77
2023-05-07T09:20:14.736Z,15.17
2023-05-07T09:22:43.690Z,14.07
2023-05-07T09:25:14.564Z,14.03
2023-05-07T09:27:45.330Z,15.10
2023-05-07T09:30:17.487Z,13.57
2023-05-07T09:32:45.943Z,14.23
2023-05-07T09:35:19.721Z,14.10
2023-05-07T09:37:53.390Z,13.67
2023-05-07T09:40:26.166Z,13.30
2023-05-07T09:42:55.819Z,13.70
2023-05-07T09:45:29.460Z,14.10
2023-05-07T09:48:00.654Z,14.07
2023-05-07T09:50:34.691Z,14.50
2023-05-07T09:53:03.482Z,13.67
2023-05-07T09:55:33.981Z,12.20
2023-05-07T09:58:06.407Z,13.03
2023-05-07T10:00:36.250Z,13.30
2023-05-07T10:03:12.756Z,13.17
2023-05-07T10:06:03.889Z,13.23
2023-05-07T10:08:33.018Z,13.17
2023-05-07T10:11:05.580Z,12.97
2023-05-07T10:13:35.806Z,12.53
2023-05-07T10:16:08.587Z,12.50
2023-05-07T10:18:43.277Z,13.27
2023-05-07T10:21:20.063Z,11.23
2023-05-07T10:24:19.160Z,12.20
2023-05-07T10:26:51.838Z,12.30
2023-05-07T10:29:27.054Z,12.67
2023-05-07T10:32:07.886Z,12.17
2023-05-07T10:34:43.982Z,11.53
2023-05-07T10:37:13.576Z,12.40
2023-05-07T10:39:42.566Z,11.43
2023-05-07T10:42:12.918Z,11.90
2023-05-07T10:44:46.061Z,11.40
2023-05-07T10:47:21.772Z,10.93
2023-05-07T10:50:25.562Z,11.07
2023-05-07T10:53:25.126Z,10.37
2023-05-07T10:56:30.173Z,11.17
2023-05-07T10:59:42.825Z,10.07
2023-05-07T11:03:09.638Z,10.07
2023-05-07T11:05:46.912Z,10.70
2023-05-07T11:08:23.814Z,10.23
2023-05-07T11:11:05.210Z,9.20
2023-05-07T11:13:46.135Z,9.23
2023-05-07T11:16:29.087Z,9.80
2023-05-07T11:19:13.813Z,10.23
2023-05-07T11:21:46.684Z,9.57
2023-05-07T11:24:41.715Z,9.47
2023-05-07T11:27:13.932Z,8.50
2023-05-07T11:29:49.391Z,8.20
2023-05-07T11:32:18.045Z,8.53
2023-05-07T11:34:58.415Z,8.77
2023-05-07T11:37:30.619Z,7.67
2023-05-07T11:40:07.676Z,8.07
2023-05-07T11:42:38.461Z,7.43
2023-05-07T11:45:08.227Z,8.00
2023-05-07T11:47:36.778Z,7.20
2023-05-07T11:50:12.567Z,9.40
2023-05-07T11:52:53.129Z,7.53
2023-05-07T11:55:25.779Z,7.40
2023-05-07T11:57:56.247Z,7.97
2023-05-07T12:00:24.445Z,7.87
2023-05-07T12:02:52.854Z,7.87
2023-05-07T12:05:25.485Z,7.10
2023-05-07T12:07:58.722Z,7.60
2023-05-07T12:10:26.934Z,6.30
2023-05-07T12:12:55.114Z,5.90
2023-05-07T12:15:25.432Z,5.80
2023-05-07T12:17:53.708Z,6.10
2023-05-07T12:20:22.112Z,6.93
2023-05-07T12:22:54.273Z,7.60
2023-05-07T12:25:22.464Z,6.70
2023-05-07T12:27:54.489Z,5.53
2023-05-07T12:30:22.788Z,6.40
2023-05-07T12:32:55.421Z,5.80
2023-05-07T12:35:29.473Z,6.40
2023-05-07T12:38:00.998Z,6.70
2023-05-07T12:40:38.631Z,6.10
2023-05-07T12:43:09.924Z,5.73
2023-05-07T12:45:44.134Z,5.37
2023-05-07T12:48:15.006Z,5.83
2023-05-07T12:50:43.984Z,6.23
2023-05-07T12:53:16.095Z,5.43
2023-05-07T12:55:48.216Z,4.93
2023-05-07T12:58:22.752Z,5.13
2023-05-07T13:00:54.416Z,5.23
2023-05-07T13:03:27.636Z,5.43
2023-05-07T13:05:58.867Z,4.70
2023-05-07T13:08:39.037Z,5.23
2023-05-07T13:11:12.713Z,5.47
2023-05-07T13:13:49.921Z,6.00
2023-05-07T13:16:22.309Z,5.73
2023-05-07T13:18:57.001Z,5.20
2023-05-07T13:21:34.909Z,4.83
2023-05-07T13:24:08.091Z,4.93
2023-05-07T13:26:46.432Z,4.50
2023-05-07T13:29:19.942Z,4.50
2023-05-07T13:31:56.375Z,4.57
2023-05-07T13:34:29.119Z,5.17
2023-05-07T13:37:00.409Z,4.93
2023-05-07T13:39:53.493Z,5.00
2023-05-07T13:42:29.035Z,4.43
2023-05-07T13:45:08.482Z,4.67
2023-05-07T13:47:41.621Z,5.03
2023-05-07T13:50:17.934Z,4.90
2023-05-07T13:53:06.826Z,4.43
2023-05-07T13:55:39.142Z,5.53
2023-05-07T13:58:15.928Z,6.00
2023-05-07T14:00:54.082Z,4.63
2023-05-07T14:03:24.379Z,5.47
2023-05-07T14:05:57.646Z,4.40
2023-05-07T14:08:37.004Z,5.17
2023-05-07T14:11:24.122Z,4.65
2023-05-07T14:13:57.506Z,4.73
2023-05-07T14:16:28.777Z,4.93
2023-05-07T14:19:03.332Z,4.73
2023-05-07T14:21:37.876Z,5.33
2023-05-07T14:24:11.229Z,4.77
2023-05-07T14:26:49.834Z,4.90
2023-05-07T14:29:24.737Z,4.40
2023-05-07T14:32:02.842Z,4.70
2023-05-07T14:34:38.415Z,4.67
2023-05-07T14:37:21.423Z,4.53
2023-05-07T14:40:01.419Z,4.13
2023-05-07T14:42:35.832Z,5.00
2023-05-07T14:45:14.513Z,4.70
2023-05-07T14:47:48.054Z,4.37
2023-05-07T14:50:28.401Z,4.67
2023-05-07T14:53:05.876Z,4.10
2023-05-07T14:55:36.782Z,3.70
2023-05-07T14:58:13.978Z,4.00
2023-05-07T15:00:45.690Z,4.00
2023-05-07T15:03:26.895Z,3.47
2023-05-07T15:06:03.578Z,3.80
2023-05-07T15:08:39.320Z,3.93
2023-05-07T15:11:12.353Z,4.17
2023-05-07T15:13:50.787Z,3.97
2023-05-07T15:16:35.699Z,4.10
2023-05-07T15:19:07.890Z,3.97
2023-05-07T15:21:59.712Z,3.67
2023-05-07T15:24:34.036Z,3.80
2023-05-07T15:27:20.732Z,3.73
2023-05-07T15:29:55.127Z,3.80
2023-05-07T15:32:23.631Z,3.70
2023-05-07T15:34:51.814Z,4.07
2023-05-07T15:37:20.044Z,3.57
2023-05-07T15:39:51.167Z,3.60
2023-05-07T15:42:19.345Z,4.50
2023-05-07T15:44:47.519Z,4.77
2023-05-07T15:47:17.111Z,4.10
2023-05-07T15:49:45.235Z,4.23
2023-05-07T15:52:14.707Z,4.20
2023-05-07T15:54:42.918Z,3.30
2023-05-07T15:57:11.822Z,3.40
2023-05-07T15:59:40.042Z,3.27
2023-05-07T16:02:10.994Z,3.40
2023-05-07T16:04:43.163Z,4.10
2023-05-07T16:07:14.406Z,3.97
2023-05-07T16:09:42.706Z,3.93
2023-05-07T16:12:11.866Z,3.37
2023-05-07T16:14:42.175Z,3.73
2023-05-07T16:17:11.083Z,3.07
2023-05-07T16:19:39.353Z,3.67
2023-05-07T16:22:09.052Z,3.20
2023-05-07T16:24:37.214Z,3.87
2023-05-07T16:27:06.579Z,3.30
2023-05-07T16:29:34.757Z,3.07
2023-05-07T16:32:03.284Z,2.83
2023-05-07T16:34:34.028Z,3.03
2023-05-07T16:37:02.201Z,3.80
2023-05-07T16:39:32.245Z,4.03
2023-05-07T16:42:03.019Z,3.63
2023-05-07T16:44:33.420Z,3.60
2023-05-07T16:47:03.594Z,3.40
2023-05-07T16:49:31.836Z,3.63
2023-05-07T16:52:00.157Z,3.33
2023-05-07T16:54:28.491Z,3.53
2023-05-07T16:56:58.280Z,3.33
2023-05-07T16:59:26.703Z,3.00
2023-05-07T17:01:56.864Z,3.30
2023-05-07T17:04:25.410Z,2.90
2023-05-07T17:06:54.006Z,3.10
2023-05-07T17:09:22.506Z,3.50
2023-05-07T17:11:52.334Z,3.40
2023-05-07T17:14:22.300Z,3.77
2023-05-07T17:16:51.332Z,4.20
2023-05-07T17:19:19.713Z,3.90
2023-05-07T17:21:47.998Z,3.93
2023-05-07T17:24:16.676Z,4.10
2023-05-07T17:26:45.878Z,3.90
2023-05-07T17:29:14.317Z,3.90
2023-05-07T17:31:44.024Z,4.70
2023-05-07T17:34:12.622Z,4.63
2023-05-07T17:36:41.050Z,5.33
2023-05-07T17:39:12.449Z,5.63
2023-05-07T17:41:40.861Z,6.00
2023-05-07T17:44:09.290Z,5.00
2023-05-07T17:46:37.583Z,5.80
2023-05-07T17:49:09.148Z,5.20
2023-05-07T17:51:52.633Z,5.80
2023-05-07T17:54:26.772Z,5.40
2023-05-07T17:56:55.143Z,5.90
2023-05-07T17:59:23.493Z,6.53
2023-05-07T18:01:52.792Z,5.67
2023-05-07T18:04:24.567Z,5.83
2023-05-07T18:06:52.948Z,5.27
2023-05-07T18:09:21.320Z,5.77
2023-05-07T18:11:52.585Z,5.10
2023-05-07T18:14:24.405Z,6.27
2023-05-07T18:16:52.875Z,5.57
2023-05-07T18:19:22.626Z,5.87
2023-05-07T18:21:51.528Z,5.23
2023-05-07T18:24:20.036Z,5.70
2023-05-07T18:26:49.168Z,6.33
2023-05-07T18:29:17.473Z,5.77
2023-05-07T18:31:45.904Z,5.97
2023-05-07T18:34:14.401Z,6.20
2023-05-07T18:36:43.974Z,5.37
2023-05-07T18:39:12.305Z,6.17
2023-05-07T18:41:40.580Z,6.57
2023-05-07T18:44:09.058Z,6.23
2023-05-07T18:46:37.451Z,6.20
2023-05-07T18:49:07.837Z,5.40
2023-05-07T18:51:36.212Z,6.03
2023-05-07T18:54:06.120Z,7.00
2023-05-07T18:56:37.407Z,6.30
2023-05-07T18:59:05.723Z,5.77
2023-05-07T19:01:34.128Z,6.43
2023-05-07T19:04:02.607Z,6.33
2023-05-07T19:06:33.267Z,5.83
2023-05-07T19:09:02.261Z,6.23
2023-05-07T19:11:32.111Z,7.40
2023-05-07T19:14:02.954Z,6.67
2023-05-07T19:16:34.894Z,6.17
2023-05-07T19:19:03.428Z,6.00
2023-05-07T19:21:32.084Z,6.23
2023-05-07T19:24:00.359Z,6.20
2023-05-07T19:26:30.931Z,6.63
2023-05-07T19:29:16.749Z,5.97
2023-05-07T19:31:47.379Z,5.63
2023-05-07T19:34:15.931Z,7.27
2023-05-07T19:36:44.501Z,6.90
2023-05-07T19:39:12.831Z,6.43
2023-05-07T19:41:41.957Z,6.83
2023-05-07T19:44:11.734Z,7.03
2023-05-07T19:46:44.609Z,7.70
2023-05-07T19:49:13.336Z,7.53
2023-05-07T19:51:41.778Z,7.70
2023-05-07T19:54:10.088Z,7.63
2023-05-07T19:56:39.998Z,8.03
2023-05-07T19:59:08.681Z,7.10
2023-05-07T20:01:39.137Z,7.10
2023-05-07T20:04:07.786Z,7.90
2023-05-07T20:06:36.274Z,7.40
2023-05-07T20:09:04.575Z,8.00
2023-05-07T20:11:32.906Z,7.60
2023-05-07T20:14:01.299Z,8.90
2023-05-07T20:16:29.676Z,8.97
2023-05-07T20:18:59.346Z,7.57
2023-05-07T20:21:27.772Z,7.77
2023-05-07T20:23:56.874Z,8.53
2023-05-07T20:26:26.467Z,8.67
2023-05-07T20:28:55.052Z,8.43
2023-05-07T20:31:23.360Z,8.80
2023-05-07T20:33:51.805Z,8.47
2023-05-07T20:36:21.483Z,8.30
2023-05-07T20:38:50.168Z,8.90
2023-05-07T20:41:24.804Z,8.37
2023-05-07T20:43:53.667Z,9.30
2023-05-07T20:46:23.266Z,8.97
2023-05-07T20:48:52.631Z,8.23
2023-05-07T20:51:25.293Z,8.97
2023-05-07T20:53:53.548Z,8.67
2023-05-07T20:56:22.307Z,8.73
2023-05-07T20:58:50.714Z,8.90
2023-05-07T21:01:22.175Z,8.67
2023-05-07T21:03:53.800Z,8.70
2023-05-07T21:06:22.103Z,9.03
2023-05-07T21:08:55.196Z,8.27
2023-05-07T21:11:23.344Z,8.70
2023-05-07T21:13:51.947Z,8.47
2023-05-07T21:16:22.931Z,9.40
2023-05-07T21:18:51.224Z,9.60
2023-05-07T21:21:19.375Z,9.53
2023-05-07T21:23:50.658Z,8.63
2023-05-07T21:26:23.972Z,8.77
2023-05-07T21:28:54.808Z,9.20
2023-05-07T21:31:23.059Z,10.43
2023-05-07T21:33:53.162Z,9.80
2023-05-07T21:36:23.577Z,9.63
2023-05-07T21:38:51.854Z,10.10
2023-05-07T21:41:21.013Z,9.60
2023-05-07T21:43:51.254Z,10.30
2023-05-07T21:46:19.537Z,9.73
2023-05-07T21:48:50.669Z,11.23
2023-05-07T21:51:19.026Z,10.30
2023-05-07T21:53:47.220Z,9.40
2023-05-07T21:56:15.334Z,9.87
2023-05-07T21:58:43.503Z,9.57
2023-05-07T22:01:13.170Z,9.60
2023-05-07T22:03:43.952Z,9.90
2023-05-07T22:06:12.265Z,9.60
2023-05-07T22:08:40.589Z,10.10
2023-05-07T22:11:08.880Z,9.77
2023-05-07T22:13:39.072Z,9.83
2023-05-07T22:16:07.507Z,9.83
2023-05-07T22:18:37.052Z,10.43
2023-05-07T22:21:05.549Z,9.70
2023-05-07T22:23:36.280Z,9.40
2023-05-07T22:26:11.320Z,10.40
2023-05-07T22:28:39.694Z,10.37
2023-05-07T22:31:08.039Z,9.70
2023-05-07T22:33:37.592Z,10.03
2023-05-07T22:36:07.747Z,9.83
2023-05-07T22:38:35.946Z,10.97
2023-05-07T22:41:04.115Z,9.40
2023-05-07T22:43:32.360Z,9.63
2023-05-07T22:46:01.225Z,9.20
2023-05-07T22:48:29.463Z,9.63
2023-05-07T22:50:59.065Z,9.07
2023-05-07T22:53:27.235Z,8.97
2023-05-07T22:55:55.461Z,9.77
2023-05-07T22:58:26.240Z,9.40
2023-05-07T23:00:54.430Z,9.80
2023-05-07T23:03:22.653Z,10.03
2023-05-07T23:05:50.955Z,10.30
2023-05-07T23:08:20.510Z,9.30
2023-05-07T23:10:51.207Z,9.90
2023-05-07T23:13:19.469Z,9.33
2023-05-07T23:15:47.637Z,9.87
2023-05-07T23:18:15.787Z,9.73
2023-05-07T23:20:46.065Z,9.97
2023-05-07T23:23:14.993Z,10.07
2023-05-07T23:25:44.527Z,9.77
2023-05-07T23:28:12.652Z,9.80
2023-05-07T23:30:41.705Z,9.43
2023-05-07T23:33:09.947Z,9.53
2023-05-07T23:35:38.098Z,9.03
2023-05-07T23:38:06.286Z,9.30
2023-05-07T23:40:36.913Z,9.10
2023-05-07T23:43:06.426Z,10.23
2023-05-07T23:45:37.275Z,9.60
2023-05-07T23:48:05.773Z,7.97
2023-05-07T23:50:36.641Z,7.83
2023-05-07T23:53:07.399Z,8.53
2023-05-07T23:55:38.326Z,9.57
2023-05-07T23:58:07.880Z,8.67
